Time;durP1;ratioP1;P1;durP2;ratioP2;P2;SDS_P1;SDS_P2;PMS_P1;PMS_P2;Temp;Humidity;BMP_temperature;BMP_pressure;BME280_temperature;BME280_humidity;BME280_pressure;Samples;Min_cycle;Max_cycle;Signal;HPM_P1;HPM_P2
2021/05/16 04:01:24;;;;;;;6.57;6.07;;;9.50;99.90;;;;;;5521937;23;20292;-75
2021/05/16 04:03:50;;;;;;;7.13;6.53;;;9.40;99.90;;;;;;4935571;29;20210;-75
2021/05/16 04:06:16;;;;;;;5.85;5.55;;;9.50;99.90;;;;;;4935207;29;20233;-75
2021/05/16 04:08:42;;;;;;;7.18;6.22;;;9.50;99.90;;;;;;4934706;29;20214;-76
2021/05/16 04:11:08;;;;;;;6.32;5.85;;;9.50;99.90;;;;;;4927294;29;20231;-76
2021/05/16 04:13:35;;;;;;;6.15;5.85;;;9.60;99.90;;;;;;4919829;29;20277;-76
2021/05/16 04:16:02;;;;;;;5.75;5.43;;;9.60;99.90;;;;;;4919910;29;20242;-76
2021/05/16 04:18:30;;;;;;;5.88;5.57;;;9.60;99.90;;;;;;4922395;29;20210;-76
2021/05/16 04:20:56;;;;;;;6.40;5.90;;;9.60;99.90;;;;;;4921710;29;20228;-75
2021/05/16 04:23:22;;;;;;;6.78;6.28;;;9.70;99.90;;;;;;4898049;29;20207;-75
2021/05/16 04:25:48;;;;;;;5.57;5.07;;;9.70;99.90;;;;;;4904887;29;20298;-76
2021/05/16 04:28:15;;;;;;;6.30;5.80;;;9.70;99.90;;;;;;4917151;29;20211;-77
2021/05/16 04:30:41;;;;;;;5.90;5.55;;;9.80;99.90;;;;;;4916076;29;20234;-76
2021/05/16 04:33:07;;;;;;;5.75;5.35;;;9.80;99.90;;;;;;4917775;29;20290;-76
2021/05/16 04:35:34;;;;;;;6.22;5.70;;;9.80;99.90;;;;;;4917047;29;20298;-75
2021/05/16 04:38:01;;;;;;;6.07;5.68;;;9.90;99.90;;;;;;4935720;29;20742;-76
2021/05/16 04:40:27;;;;;;;5.75;5.45;;;9.90;99.90;;;;;;4926045;29;20317;-76
2021/05/16 04:42:54;;;;;;;4.80;4.60;;;10.00;99.90;;;;;;4935355;29;20213;-72
2021/05/16 04:45:21;;;;;;;6.00;4.57;;;10.10;99.90;;;;;;4925451;29;20317;-75
2021/05/16 04:47:47;;;;;;;5.47;5.03;;;10.10;99.90;;;;;;4922811;29;20207;-76
2021/05/16 04:50:15;;;;;;;4.97;4.68;;;10.20;99.90;;;;;;4916417;29;20230;-75
2021/05/16 04:52:43;;;;;;;5.32;5.03;;;10.20;99.90;;;;;;4932123;29;20214;-75
2021/05/16 04:55:10;;;;;;;5.22;4.93;;;10.20;99.90;;;;;;4923770;29;20305;-77
2021/05/16 04:57:36;;;;;;;5.45;5.05;;;10.20;99.90;;;;;;4916886;29;20240;-71
2021/05/16 05:00:03;;;;;;;7.97;5.43;;;10.20;99.90;;;;;;4916181;29;20207;-73
2021/05/16 05:02:32;;;;;;;5.05;4.85;;;10.20;99.90;;;;;;4915438;29;20739;-71
2021/05/16 05:04:59;;;;;;;5.15;4.95;;;10.20;99.90;;;;;;4922742;29;20205;-74
2021/05/16 05:07:25;;;;;;;5.03;4.80;;;10.30;99.90;;;;;;4916609;29;20218;-74
2021/05/16 05:09:52;;;;;;;6.65;6.15;;;10.30;99.90;;;;;;4922662;29;20198;-74
2021/05/16 05:12:18;;;;;;;5.50;5.20;;;10.30;99.90;;;;;;4916750;29;20226;-74
2021/05/16 05:14:44;;;;;;;5.55;5.35;;;10.40;99.90;;;;;;4921993;29;20225;-74
2021/05/16 05:17:10;;;;;;;5.40;5.10;;;10.40;99.90;;;;;;4917780;29;20210;-74
2021/05/16 05:19:36;;;;;;;5.15;4.95;;;10.40;99.90;;;;;;4925208;29;20202;-74
2021/05/16 05:22:03;;;;;;;5.85;5.40;;;10.40;99.90;;;;;;4920861;29;20261;-74
2021/05/16 05:24:29;;;;;;;5.40;5.10;;;10.50;99.90;;;;;;4937502;29;20205;-74
2021/05/16 05:26:56;;;;;;;4.95;4.75;;;10.50;99.90;;;;;;4922922;29;20222;-75
2021/05/16 05:29:22;;;;;;;4.88;4.68;;;10.50;99.90;;;;;;4936522;29;20635;-72
2021/05/16 05:31:49;;;;;;;5.05;4.65;;;10.50;99.90;;;;;;4922706;29;20234;-72
2021/05/16 05:34:15;;;;;;;5.20;4.85;;;10.50;99.90;;;;;;4934802;29;20557;-72
2021/05/16 05:36:41;;;;;;;8.40;5.50;;;10.50;99.90;;;;;;4924822;29;20211;-71
2021/05/16 05:39:07;;;;;;;5.05;4.75;;;10.50;99.90;;;;;;4932726;29;20214;-72
2021/05/16 05:41:34;;;;;;;5.50;5.13;;;10.60;99.90;;;;;;4925405;29;20730;-72
2021/05/16 05:44:02;;;;;;;5.22;4.85;;;10.70;99.90;;;;;;4930514;29;20298;-72
2021/05/16 05:46:28;;;;;;;5.55;5.05;;;10.70;99.90;;;;;;4927007;29;20218;-72
2021/05/16 05:48:55;;;;;;;5.93;5.63;;;10.70;99.90;;;;;;4930595;29;20309;-72
2021/05/16 05:51:21;;;;;;;5.30;5.00;;;10.80;99.90;;;;;;4928796;29;20226;-73
2021/05/16 05:53:47;;;;;;;5.47;5.07;;;10.80;99.90;;;;;;4928614;29;20221;-73
2021/05/16 05:56:13;;;;;;;5.25;4.85;;;10.80;99.90;;;;;;4930732;29;20199;-72
2021/05/16 05:58:40;;;;;;;5.75;5.35;;;10.80;99.90;;;;;;4936604;29;20292;-72
2021/05/16 06:01:08;;;;;;;4.80;4.60;;;10.80;99.90;;;;;;4929612;29;20234;-73
2021/05/16 06:03:37;;;;;;;5.93;5.63;;;10.90;99.90;;;;;;4926459;29;20205;-72
2021/05/16 06:06:03;;;;;;;5.47;5.18;;;11.00;99.90;;;;;;4927931;29;20281;-73
2021/05/16 06:08:29;;;;;;;5.20;5.00;;;11.00;99.90;;;;;;4919078;29;20615;-72
2021/05/16 06:10:56;;;;;;;5.20;4.90;;;11.20;99.90;;;;;;4918138;29;20245;-72
2021/05/16 06:13:22;;;;;;;5.97;5.53;;;11.30;99.90;;;;;;4918314;29;20246;-72
2021/05/16 06:15:49;;;;;;;6.53;6.07;;;11.50;99.90;;;;;;4917745;29;20199;-71
2021/05/16 06:18:16;;;;;;;5.63;5.22;;;11.70;99.90;;;;;;4922595;29;20210;-73
2021/05/16 06:20:42;;;;;;;4.30;4.20;;;12.50;99.90;;;;;;4918190;29;20227;-72
2021/05/16 06:23:11;;;;;;;4.00;3.90;;;13.60;99.90;;;;;;4917386;29;20886;-72
2021/05/16 06:25:37;;;;;;;4.20;3.90;;;14.70;99.90;;;;;;4917950;29;20694;-72
2021/05/16 06:28:04;;;;;;;4.10;3.90;;;15.80;99.90;;;;;;4927900;29;20470;-72
2021/05/16 06:30:30;;;;;;;4.77;4.40;;;16.30;99.90;;;;;;4917560;29;20494;-72
2021/05/16 06:32:56;;;;;;;3.70;3.70;;;16.40;99.90;;;;;;4917701;29;20478;-73
2021/05/16 06:35:23;;;;;;;4.67;4.37;;;16.70;99.90;;;;;;4928005;29;20458;-72
2021/05/16 06:37:49;;;;;;;4.70;4.40;;;16.60;99.90;;;;;;4925444;29;20863;-72
2021/05/16 06:40:16;;;;;;;5.93;5.57;;;16.40;99.90;;;;;;4926600;29;20462;-71
2021/05/16 06:42:43;;;;;;;6.93;6.50;;;16.20;99.90;;;;;;4927065;29;20466;-71
2021/05/16 06:45:10;;;;;;;8.43;6.70;;;16.00;99.90;;;;;;4917981;29;20470;-72
2021/05/16 06:47:36;;;;;;;6.40;5.80;;;15.40;99.90;;;;;;4919036;29;20477;-71
2021/05/16 06:50:03;;;;;;;7.60;6.90;;;15.00;99.90;;;;;;4917820;29;20482;-72
2021/05/16 06:52:30;;;;;;;8.53;7.93;;;14.70;99.90;;;;;;4916532;29;20526;-72
2021/05/16 06:54:56;;;;;;;8.37;7.50;;;14.30;99.90;;;;;;4918004;29;20486;-72
2021/05/16 06:57:22;;;;;;;8.83;8.00;;;14.10;99.90;;;;;;4917601;29;20466;-72
2021/05/16 06:59:48;;;;;;;9.63;8.83;;;14.00;99.90;;;;;;4917470;29;20466;-71
2021/05/16 07:02:14;;;;;;;10.20;8.00;;;13.90;99.90;;;;;;4917437;29;20526;-71
2021/05/16 07:04:42;;;;;;;13.70;8.23;;;13.80;99.90;;;;;;4917918;29;20478;-71
2021/05/16 07:07:09;;;;;;;8.50;7.80;;;13.90;99.90;;;;;;4916763;29;20538;-71
2021/05/16 07:09:36;;;;;;;9.97;7.50;;;14.00;99.90;;;;;;4917972;29;20467;-72
2021/05/16 07:12:02;;;;;;;7.27;6.60;;;14.40;99.90;;;;;;4916712;29;20597;-75
2021/05/16 07:14:28;;;;;;;10.13;7.43;;;14.90;99.90;;;;;;4917327;29;20466;-71
2021/05/16 07:16:54;;;;;;;7.10;6.50;;;15.20;99.90;;;;;;4928238;29;20950;-71
2021/05/16 07:19:21;;;;;;;6.60;6.10;;;15.60;99.90;;;;;;4934463;29;20966;-72
2021/05/16 07:21:47;;;;;;;7.50;7.00;;;15.60;99.90;;;;;;4918071;29;20502;-71
2021/05/16 07:24:13;;;;;;;6.57;6.17;;;15.80;99.90;;;;;;4898343;29;20468;-70
2021/05/16 07:26:40;;;;;;;6.33;5.97;;;15.50;99.90;;;;;;4907236;29;20597;-71
2021/05/16 07:29:06;;;;;;;7.43;6.93;;;15.20;99.90;;;;;;4921565;29;20473;-70
2021/05/16 07:31:32;;;;;;;7.03;6.43;;;14.90;99.90;;;;;;4922944;29;20978;-71
2021/05/16 07:33:58;;;;;;;6.90;6.40;;;14.60;99.90;;;;;;4917149;29;20482;-71
2021/05/16 07:36:25;;;;;;;6.33;5.93;;;14.60;99.90;;;;;;4917639;29;20957;-71
2021/05/16 07:38:51;;;;;;;6.33;5.93;;;14.60;99.90;;;;;;4916830;29;20493;-72
2021/05/16 07:41:17;;;;;;;6.50;5.93;;;14.80;99.90;;;;;;4920749;29;20492;-72
2021/05/16 07:43:44;;;;;;;5.60;5.40;;;15.30;99.90;;;;;;4924789;29;20485;-72
2021/05/16 07:46:11;;;;;;;5.97;5.47;;;15.90;99.90;;;;;;4920194;29;20874;-71
2021/05/16 07:48:37;;;;;;;6.47;5.77;;;15.90;99.90;;;;;;4925713;29;20822;-71
2021/05/16 07:51:05;;;;;;;6.43;5.60;;;15.70;99.90;;;;;;4922686;29;20479;-71
2021/05/16 07:53:31;;;;;;;7.27;6.60;;;15.40;99.90;;;;;;4924738;29;20533;-72
2021/05/16 07:55:57;;;;;;;4.90;4.80;;;15.80;99.90;;;;;;4918464;29;20939;-71
2021/05/16 07:58:24;;;;;;;5.60;5.30;;;16.30;99.90;;;;;;4926625;29;20473;-73
2021/05/16 08:00:51;;;;;;;4.80;4.60;;;16.40;99.90;;;;;;4917184;29;20582;-76
2021/05/16 08:03:18;;;;;;;4.53;4.30;;;16.20;99.90;;;;;;4916327;29;20462;-76
2021/05/16 08:05:44;;;;;;;5.20;4.83;;;16.10;99.90;;;;;;4916736;29;20483;-73
2021/05/16 08:08:10;;;;;;;6.87;4.90;;;16.20;99.90;;;;;;4916833;29;20540;-74
2021/05/16 08:10:36;;;;;;;4.97;4.77;;;16.30;99.90;;;;;;4916739;29;20482;-74
2021/05/16 08:13:03;;;;;;;5.10;4.80;;;16.00;99.90;;;;;;4916731;29;20459;-73
2021/05/16 08:15:29;;;;;;;8.67;7.73;;;15.90;99.90;;;;;;4917955;29;20462;-75
2021/05/16 08:17:57;;;;;;;20.07;11.70;;;15.90;99.90;;;;;;4917442;29;20959;-74
2021/05/16 08:20:24;;;;;;;5.70;5.13;;;16.10;99.90;;;;;;4917565;29;20465;-75
2021/05/16 08:22:50;;;;;;;5.87;5.47;;;16.20;99.90;;;;;;4917730;29;20525;-74
2021/05/16 08:25:16;;;;;;;11.60;5.30;;;16.30;99.90;;;;;;4923345;29;20503;-74
2021/05/16 08:27:43;;;;;;;4.87;4.50;;;16.30;99.90;;;;;;4928331;29;20993;-74
2021/05/16 08:30:10;;;;;;;5.17;4.87;;;16.30;99.90;;;;;;4920726;29;20463;-73
2021/05/16 08:32:37;;;;;;;9.10;8.27;;;16.40;99.90;;;;;;4916662;29;20966;-74
2021/05/16 08:35:05;;;;;;;7.90;5.87;;;16.50;99.90;;;;;;4918316;29;20569;-73
2021/05/16 08:37:31;;;;;;;6.30;5.87;;;16.30;99.90;;;;;;4921878;29;20478;-75
2021/05/16 08:39:58;;;;;;;6.13;5.60;;;16.20;99.90;;;;;;4921479;29;20464;-75
2021/05/16 08:42:24;;;;;;;6.73;6.17;;;16.10;99.90;;;;;;4917072;29;20492;-74
2021/05/16 08:44:50;;;;;;;7.53;6.50;;;16.00;99.90;;;;;;4917709;29;20500;-75
2021/05/16 08:47:16;;;;;;;6.77;6.13;;;15.80;99.90;;;;;;4923185;29;20561;-75
2021/05/16 08:49:43;;;;;;;6.13;5.80;;;15.60;99.90;;;;;;4920612;29;20541;-76
2021/05/16 08:52:10;;;;;;;6.60;6.13;;;15.60;99.90;;;;;;4920911;29;20844;-74
2021/05/16 08:54:36;;;;;;;6.37;5.87;;;15.60;99.90;;;;;;4921014;29;20954;-74
2021/05/16 08:57:03;;;;;;;5.63;5.33;;;15.60;99.90;;;;;;4929307;29;20458;-73
2021/05/16 08:59:29;;;;;;;5.20;4.73;;;15.70;99.90;;;;;;4936941;29;20571;-73
2021/05/16 09:01:57;;;;;;;4.70;4.50;;;15.70;99.90;;;;;;4921874;29;20836;-73
2021/05/16 09:04:31;;;;;;;4.80;4.50;;;15.60;99.90;;;;;;4920624;29;20938;-74
2021/05/16 09:06:57;;;;;;;3.93;3.73;;;15.70;99.90;;;;;;4920500;29;20502;-74
2021/05/16 09:09:26;;;;;;;5.60;5.20;;;15.90;99.90;;;;;;4920526;29;20459;-74
2021/05/16 09:11:54;;;;;;;7.03;3.90;;;15.90;99.90;;;;;;4920576;29;20497;-74
2021/05/16 09:14:42;;;;;;;4.50;4.30;;;16.20;99.90;;;;;;4939152;29;20462;-73
2021/05/16 09:17:28;;;;;;;4.37;4.00;;;16.10;99.90;;;;;;4936821;29;20466;-74
2021/05/16 09:19:57;;;;;;;5.33;4.90;;;16.10;99.90;;;;;;4920500;29;20469;-74
2021/05/16 09:22:35;;;;;;;4.80;3.50;;;15.90;99.90;;;;;;4923456;29;20501;-74
2021/05/16 09:25:14;;;;;;;3.37;3.13;;;16.00;99.90;;;;;;4924352;29;20457;-74
2021/05/16 09:27:42;;;;;;;3.27;3.27;;;16.20;99.90;;;;;;4913919;29;20462;-74
2021/05/16 09:30:30;;;;;;;5.33;3.30;;;16.30;99.90;;;;;;4920209;29;20459;-74
2021/05/16 09:32:59;;;;;;;4.20;4.00;;;16.50;99.90;;;;;;4920490;29;20896;-74
2021/05/16 09:35:31;;;;;;;3.60;3.40;;;16.50;99.90;;;;;;4912925;29;20877;-74
2021/05/16 09:37:59;;;;;;;4.13;3.83;;;16.60;99.90;;;;;;4909614;29;20530;-74
2021/05/16 09:40:28;;;;;;;3.37;3.17;;;16.70;99.90;;;;;;4917827;29;20465;-73
2021/05/16 09:43:10;;;;;;;3.23;3.13;;;16.80;99.90;;;;;;4917295;29;20529;-74
2021/05/16 09:45:54;;;;;;;4.70;4.30;;;16.70;99.90;;;;;;4919511;29;20843;-75
2021/05/16 09:48:30;;;;;;;4.20;3.90;;;16.40;99.90;;;;;;4922179;29;20471;-75
2021/05/16 09:51:15;;;;;;;3.80;3.50;;;16.30;99.90;;;;;;4921947;29;21081;-75
2021/05/16 09:53:54;;;;;;;4.80;4.60;;;16.30;99.90;;;;;;4907668;29;20537;-75
2021/05/16 09:56:24;;;;;;;4.90;4.60;;;16.10;99.90;;;;;;4916364;29;21049;-73
2021/05/16 09:58:51;;;;;;;4.90;4.40;;;16.00;99.90;;;;;;4916940;29;20522;-74
2021/05/16 10:01:18;;;;;;;6.17;5.77;;;15.90;99.90;;;;;;4916144;29;20502;-74
2021/05/16 10:03:47;;;;;;;5.67;5.27;;;15.80;99.90;;;;;;4913866;29;20471;-73
2021/05/16 10:06:13;;;;;;;10.30;6.00;;;15.70;99.90;;;;;;4913778;29;20489;-72
2021/05/16 10:08:42;;;;;;;4.20;3.90;;;15.30;99.90;;;;;;4919042;29;20451;-74
2021/05/16 10:11:08;;;;;;;4.53;4.17;;;14.30;99.90;;;;;;4913030;29;20510;-76
2021/05/16 10:13:39;;;;;;;4.80;4.20;;;13.70;99.90;;;;;;4931158;29;20470;-74
2021/05/16 10:16:10;;;;;;;3.92;3.50;;;13.40;99.90;;;;;;4920522;29;20471;-73
2021/05/16 10:18:37;;;;;;;5.20;4.70;;;13.10;99.90;;;;;;4912859;29;20467;-74
2021/05/16 10:21:06;;;;;;;5.25;4.72;;;12.90;99.90;;;;;;4912490;29;20230;-74
2021/05/16 10:23:33;;;;;;;5.18;4.78;;;12.80;99.90;;;;;;4914036;29;20624;-74
2021/05/16 10:26:17;;;;;;;4.50;4.18;;;12.80;99.90;;;;;;4914986;29;20683;-73
2021/05/16 10:28:59;;;;;;;4.50;4.20;;;12.90;99.90;;;;;;4915094;29;20217;-73
2021/05/16 10:31:50;;;;;;;4.20;3.80;;;13.20;99.90;;;;;;4914191;29;20227;-71
2021/05/16 10:34:40;;;;;;;3.80;3.70;;;13.50;99.90;;;;;;4896237;29;20485;-72
2021/05/16 10:37:07;;;;;;;4.07;3.80;;;13.80;99.90;;;;;;4914545;29;20550;-73
2021/05/16 10:39:48;;;;;;;3.67;3.37;;;13.90;99.90;;;;;;4914603;29;20570;-73
2021/05/16 10:42:16;;;;;;;4.40;4.10;;;14.20;99.90;;;;;;4913206;29;20500;-75
2021/05/16 10:44:57;;;;;;;5.43;5.10;;;14.50;99.90;;;;;;4914568;29;20485;-74
2021/05/16 10:47:57;;;;;;;4.97;4.77;;;14.80;99.90;;;;;;4907924;29;20544;-72
2021/05/16 10:50:39;;;;;;;5.23;4.77;;;14.90;99.90;;;;;;4892706;29;20566;-72
2021/05/16 10:53:08;;;;;;;5.20;4.90;;;15.10;99.90;;;;;;4902524;29;20485;-72
2021/05/16 10:55:36;;;;;;;7.00;5.90;;;15.00;99.90;;;;;;4913792;29;20473;-72
2021/05/16 10:58:03;;;;;;;5.57;5.17;;;15.10;99.90;;;;;;4914264;29;20620;-72
2021/05/16 11:00:32;;;;;;;5.63;5.33;;;15.20;99.90;;;;;;4914356;29;20498;-72
2021/05/16 11:03:04;;;;;;;7.07;6.40;;;15.50;99.90;;;;;;4911990;29;20462;-72
2021/05/16 11:05:54;;;;;;;7.00;5.70;;;15.50;99.90;;;;;;4913946;29;20464;-72
2021/05/16 11:09:12;;;;;;;6.47;6.07;;;15.40;99.90;;;;;;4907191;29;20485;-73
2021/05/16 11:11:56;;;;;;;5.63;5.13;;;15.40;99.90;;;;;;4911662;29;20486;-73
2021/05/16 11:14:25;;;;;;;5.60;5.20;;;15.50;99.90;;;;;;4912124;29;20467;-73
2021/05/16 11:16:54;;;;;;;6.83;6.10;;;15.60;99.90;;;;;;4913999;29;20466;-76
2021/05/16 11:19:22;;;;;;;6.00;5.60;;;15.60;99.90;;;;;;4916001;29;20467;-77
2021/05/16 11:21:48;;;;;;;6.83;6.20;;;15.50;99.90;;;;;;4915302;29;20541;-76
2021/05/16 11:24:16;;;;;;;6.57;5.90;;;15.40;99.90;;;;;;4911115;29;20479;-76
2021/05/16 11:26:42;;;;;;;6.67;6.20;;;15.10;99.90;;;;;;4916043;29;20891;-76
2021/05/16 11:29:09;;;;;;;6.70;5.53;;;14.70;99.90;;;;;;4924984;29;20485;-76
2021/05/16 11:31:35;;;;;;;7.57;6.97;;;14.50;99.90;;;;;;4924942;29;20505;-76
2021/05/16 11:34:05;;;;;;;4.30;4.00;;;14.40;99.90;;;;;;4917676;29;20562;-77
2021/05/16 11:36:33;;;;;;;3.50;3.37;;;14.40;99.90;;;;;;4916073;29;20942;-77
2021/05/16 11:39:01;;;;;;;4.40;4.10;;;14.10;99.90;;;;;;4916481;29;20521;-76
2021/05/16 11:41:30;;;;;;;3.70;3.33;;;13.90;99.90;;;;;;4915966;29;20491;-76
2021/05/16 11:43:57;;;;;;;3.57;3.37;;;14.00;99.90;;;;;;4912851;29;20470;-76
2021/05/16 11:46:29;;;;;;;4.43;4.00;;;14.10;99.90;;;;;;4913883;29;20530;-77
2021/05/16 11:48:56;;;;;;;4.07;3.73;;;14.30;99.90;;;;;;4903732;29;20470;-74
2021/05/16 11:51:24;;;;;;;4.17;3.90;;;14.60;99.90;;;;;;4915433;29;20539;-75
2021/05/16 11:53:54;;;;;;;4.23;4.00;;;14.90;99.90;;;;;;4913613;29;20820;-76
2021/05/16 11:56:22;;;;;;;3.87;3.70;;;15.20;99.90;;;;;;4913638;29;20816;-75
2021/05/16 11:58:51;;;;;;;3.80;3.50;;;15.60;99.90;;;;;;4913022;29;20799;-75
2021/05/16 12:01:18;;;;;;;4.87;4.27;;;15.70;99.90;;;;;;4912052;29;20661;-76
2021/05/16 12:03:59;;;;;;;4.70;4.30;;;15.90;99.90;;;;;;4911880;29;20486;-75
2021/05/16 12:06:27;;;;;;;3.67;3.40;;;16.20;99.90;;;;;;4907834;29;21053;-72
2021/05/16 12:09:01;;;;;;;3.40;3.10;;;16.40;99.90;;;;;;4912991;29;20474;-73
2021/05/16 12:11:30;;;;;;;3.83;3.53;;;16.40;99.90;;;;;;4907892;29;20863;-72
2021/05/16 12:14:10;;;;;;;3.50;3.40;;;16.10;99.90;;;;;;4912344;29;21097;-73
2021/05/16 12:16:37;;;;;;;2.40;2.40;;;15.80;99.90;;;;;;4911626;29;20469;-72
2021/05/16 12:19:04;;;;;;;2.27;2.17;;;15.60;99.90;;;;;;4918329;29;20620;-73
2021/05/16 12:21:34;;;;;;;2.30;2.30;;;15.40;99.90;;;;;;4913055;29;20581;-74
2021/05/16 12:24:01;;;;;;;3.83;3.63;;;15.20;99.90;;;;;;4913119;29;20545;-74
2021/05/16 12:26:31;;;;;;;3.13;3.13;;;15.30;99.90;;;;;;4914193;29;20592;-74
2021/05/16 12:28:58;;;;;;;2.90;2.90;;;15.40;99.90;;;;;;4914907;29;20486;-75
2021/05/16 12:31:24;;;;;;;3.10;3.00;;;15.60;99.90;;;;;;4914891;29;20486;-75
2021/05/16 12:33:53;;;;;;;3.30;3.07;;;15.90;99.90;;;;;;4914397;29;20629;-75
2021/05/16 12:36:19;;;;;;;3.30;3.20;;;16.10;99.90;;;;;;4912661;29;20490;-76
2021/05/16 12:38:49;;;;;;;3.17;3.07;;;16.10;99.90;;;;;;4914233;29;20470;-76
2021/05/16 12:41:18;;;;;;;3.30;3.10;;;16.00;99.90;;;;;;4914718;29;20850;-75
2021/05/16 12:43:59;;;;;;;3.33;3.20;;;15.80;99.90;;;;;;4916054;29;20466;-75
2021/05/16 12:46:40;;;;;;;3.03;2.90;;;15.70;99.90;;;;;;4913038;29;20488;-75
2021/05/16 12:49:06;;;;;;;2.70;2.50;;;15.70;99.90;;;;;;4913516;29;20982;-74
2021/05/16 12:51:34;;;;;;;3.23;3.10;;;15.80;99.90;;;;;;4912052;29;20605;-74
2021/05/16 12:54:19;;;;;;;3.40;3.20;;;15.90;99.90;;;;;;4911831;29;21046;-73
2021/05/16 12:56:47;;;;;;;4.13;3.93;;;16.00;99.90;;;;;;4913164;29;20994;-73
2021/05/16 12:59:28;;;;;;;4.93;4.47;;;16.00;99.90;;;;;;4912854;29;20474;-74
2021/05/16 13:02:13;;;;;;;4.20;3.90;;;16.10;99.90;;;;;;4912371;29;20556;-74
2021/05/16 13:04:50;;;;;;;4.27;3.97;;;16.10;99.90;;;;;;4911937;29;20474;-73
2021/05/16 13:07:37;;;;;;;3.00;2.80;;;16.10;99.90;;;;;;4912609;29;20546;-73
2021/05/16 13:10:31;;;;;;;3.47;3.23;;;15.90;99.90;;;;;;4912104;29;20529;-74
2021/05/16 13:13:11;;;;;;;3.97;3.60;;;15.80;99.90;;;;;;4912265;29;20901;-73
2021/05/16 13:15:41;;;;;;;3.13;2.93;;;15.80;99.90;;;;;;4912668;29;20462;-73
2021/05/16 13:18:24;;;;;;;2.40;2.20;;;15.80;99.90;;;;;;4912519;29;20955;-73
2021/05/16 13:20:50;;;;;;;2.50;2.40;;;15.70;99.90;;;;;;4910604;29;20545;-72
2021/05/16 13:23:22;;;;;;;3.03;2.93;;;15.60;99.90;;;;;;4911484;29;20466;-73
2021/05/16 13:25:50;;;;;;;2.87;2.77;;;15.60;99.90;;;;;;4912603;29;20954;-75
2021/05/16 13:28:20;;;;;;;2.80;2.57;;;15.70;99.90;;;;;;4913140;29;20476;-74
2021/05/16 13:30:53;;;;;;;3.50;3.30;;;15.90;99.90;;;;;;4912827;29;20562;-74
2021/05/16 13:33:19;;;;;;;3.87;3.60;;;16.00;99.90;;;;;;4913068;29;20521;-74
2021/05/16 13:35:45;;;;;;;3.60;3.40;;;16.20;99.90;;;;;;4912347;29;20466;-75
2021/05/16 13:38:12;;;;;;;4.03;3.83;;;16.50;99.90;;;;;;4912778;29;20780;-75
2021/05/16 13:40:38;;;;;;;4.30;3.90;;;16.70;99.90;;;;;;4914748;29;20493;-75
2021/05/16 13:43:05;;;;;;;5.23;4.00;;;16.80;99.90;;;;;;4918465;29;20485;-77
2021/05/16 13:45:32;;;;;;;3.80;3.60;;;16.80;99.90;;;;;;4919611;29;20466;-77
2021/05/16 13:47:58;;;;;;;4.20;4.00;;;16.80;99.90;;;;;;4920150;29;20486;-73
2021/05/16 13:50:24;;;;;;;4.53;4.20;;;16.90;99.90;;;;;;4916874;29;20550;-73
2021/05/16 13:52:51;;;;;;;4.43;3.87;;;16.90;99.90;;;;;;4916100;29;20486;-74
2021/05/16 13:55:18;;;;;;;4.23;3.83;;;16.80;99.90;;;;;;4929139;29;20497;-74
2021/05/16 13:57:45;;;;;;;4.20;3.87;;;16.90;99.90;;;;;;4931605;29;20462;-77
2021/05/16 14:00:13;;;;;;;4.60;4.30;;;17.00;99.90;;;;;;4923753;29;20884;-77
2021/05/16 14:02:39;;;;;;;7.10;3.80;;;17.10;99.90;;;;;;4928092;29;20485;-73
2021/05/16 14:05:07;;;;;;;4.50;4.23;;;17.20;99.90;;;;;;4927906;29;20459;-69
2021/05/16 14:07:33;;;;;;;5.13;4.63;;;17.30;99.90;;;;;;4917769;29;20921;-74
2021/05/16 14:09:59;;;;;;;4.40;4.17;;;17.40;99.90;;;;;;4920944;29;20474;-75
2021/05/16 14:12:26;;;;;;;4.47;4.00;;;17.40;99.90;;;;;;4917141;29;20482;-74
2021/05/16 14:14:53;;;;;;;4.10;3.80;;;17.50;99.90;;;;;;4919181;29;20546;-74
2021/05/16 14:17:19;;;;;;;5.73;4.10;;;17.30;99.90;;;;;;4918600;29;20469;-73
2021/05/16 14:19:46;;;;;;;4.30;4.10;;;17.10;99.90;;;;;;4918872;29;20537;-74
2021/05/16 14:22:12;;;;;;;4.13;3.53;;;17.00;99.90;;;;;;4934334;29;20485;-73
2021/05/16 14:24:39;;;;;;;3.10;2.80;;;16.80;99.90;;;;;;4922929;29;20553;-73
2021/05/16 14:27:05;;;;;;;4.07;3.10;;;16.70;99.90;;;;;;4919151;29;20482;-74
2021/05/16 14:29:32;;;;;;;3.07;2.93;;;16.70;99.90;;;;;;4918339;29;20923;-73
2021/05/16 14:31:58;;;;;;;3.40;3.30;;;16.80;99.90;;;;;;4917826;29;20482;-73
2021/05/16 14:34:25;;;;;;;3.50;3.17;;;17.00;99.90;;;;;;4918035;29;20486;-75
2021/05/16 14:36:51;;;;;;;5.70;3.43;;;17.00;99.90;;;;;;4917676;29;20466;-74
2021/05/16 14:39:17;;;;;;;2.60;2.50;;;16.80;99.90;;;;;;4918359;29;20956;-74
2021/05/16 14:41:43;;;;;;;3.40;3.10;;;16.70;99.90;;;;;;4918470;29;20498;-74
2021/05/16 14:44:10;;;;;;;3.00;2.80;;;16.40;99.90;;;;;;4918569;29;20534;-74
2021/05/16 14:46:36;;;;;;;2.83;2.63;;;16.40;99.90;;;;;;4925077;29;20521;-72
2021/05/16 14:49:02;;;;;;;3.30;3.10;;;16.40;99.90;;;;;;4922786;29;20462;-74
2021/05/16 14:51:29;;;;;;;2.90;2.80;;;16.30;99.90;;;;;;4918471;29;20999;-73
2021/05/16 14:53:56;;;;;;;3.17;2.97;;;16.20;99.90;;;;;;4917866;29;20478;-74
2021/05/16 14:56:22;;;;;;;2.73;2.63;;;16.20;99.90;;;;;;4918796;29;20474;-74
2021/05/16 14:58:48;;;;;;;3.40;3.10;;;16.20;99.90;;;;;;4923476;29;20469;-73
2021/05/16 15:01:14;;;;;;;6.43;3.10;;;16.10;99.90;;;;;;4922532;29;20490;-72
2021/05/16 15:03:40;;;;;;;3.60;3.40;;;16.10;99.90;;;;;;4917793;29;20466;-72
2021/05/16 15:06:08;;;;;;;4.40;3.17;;;16.10;99.90;;;;;;4917371;29;20490;-74
2021/05/16 15:08:35;;;;;;;3.17;2.97;;;16.00;99.90;;;;;;4916829;29;20558;-72
2021/05/16 15:11:01;;;;;;;4.23;3.83;;;15.90;99.90;;;;;;4916823;29;20486;-73
2021/05/16 15:13:28;;;;;;;3.53;3.10;;;15.70;99.90;;;;;;4916533;29;20466;-75
2021/05/16 15:15:54;;;;;;;4.43;3.97;;;15.60;99.90;;;;;;4934857;29;20469;-71
2021/05/16 15:18:21;;;;;;;3.80;3.63;;;15.50;99.90;;;;;;4921359;29;20525;-72
2021/05/16 15:20:47;;;;;;;3.67;3.47;;;15.40;99.90;;;;;;4918111;29;20537;-72
2021/05/16 15:23:13;;;;;;;4.17;3.87;;;15.40;99.90;;;;;;4916081;29;20486;-73
2021/05/16 15:25:40;;;;;;;3.77;3.50;;;15.50;99.90;;;;;;4928934;29;20861;-73
2021/05/16 15:28:06;;;;;;;4.63;4.07;;;15.60;99.90;;;;;;4925702;29;20486;-72
2021/05/16 15:30:32;;;;;;;3.50;3.20;;;15.60;99.90;;;;;;4933474;29;20489;-73
2021/05/16 15:32:59;;;;;;;4.60;4.30;;;15.70;99.90;;;;;;4924589;29;20478;-73
2021/05/16 15:35:25;;;;;;;4.00;3.70;;;15.80;99.90;;;;;;4917496;29;20518;-73
2021/05/16 15:37:51;;;;;;;3.33;3.07;;;15.90;99.90;;;;;;4916506;29;20463;-73
2021/05/16 15:40:19;;;;;;;4.20;3.80;;;15.90;99.90;;;;;;4917063;29;20463;-73
2021/05/16 15:42:46;;;;;;;3.80;3.50;;;15.90;99.90;;;;;;4916665;29;20482;-73
2021/05/16 15:45:13;;;;;;;4.60;3.73;;;15.80;99.90;;;;;;4917484;29;20466;-73
2021/05/16 15:47:39;;;;;;;3.57;3.33;;;15.70;99.90;;;;;;4916995;29;20490;-73
2021/05/16 15:50:06;;;;;;;3.80;3.60;;;15.60;99.90;;;;;;4923264;29;20470;-73
2021/05/16 15:52:33;;;;;;;4.10;3.70;;;15.50;99.90;;;;;;4919218;29;20473;-74
2021/05/16 15:54:59;;;;;;;4.17;3.87;;;15.40;99.90;;;;;;4917840;29;20477;-73
2021/05/16 15:57:25;;;;;;;4.50;4.20;;;15.40;99.90;;;;;;4931471;29;20462;-74
2021/05/16 15:59:52;;;;;;;5.10;4.70;;;15.40;99.90;;;;;;4935841;29;20473;-74
2021/05/16 16:02:19;;;;;;;4.30;3.70;;;15.40;99.90;;;;;;4918921;29;20567;-73
2021/05/16 16:04:45;;;;;;;4.40;4.10;;;15.40;99.90;;;;;;4916534;29;20466;-73
2021/05/16 16:07:11;;;;;;;5.33;4.83;;;15.40;99.90;;;;;;4929999;29;20898;-74
2021/05/16 16:09:40;;;;;;;5.73;5.43;;;15.20;99.90;;;;;;4935445;29;20466;-73
2021/05/16 16:12:07;;;;;;;6.13;5.63;;;15.00;99.90;;;;;;4932232;29;20552;-74
2021/05/16 16:14:33;;;;;;;7.67;5.57;;;14.80;99.90;;;;;;4897386;29;20485;-72
2021/05/16 16:17:00;;;;;;;5.90;5.40;;;14.60;99.90;;;;;;4921844;29;20959;-73
2021/05/16 16:19:26;;;;;;;7.97;5.80;;;14.50;99.90;;;;;;4935443;29;20462;-73
2021/05/16 16:21:54;;;;;;;6.47;6.17;;;14.40;99.90;;;;;;4925079;29;20628;-73
2021/05/16 16:24:20;;;;;;;9.90;5.80;;;14.30;99.90;;;;;;4915994;29;20522;-73
2021/05/16 16:26:47;;;;;;;5.80;5.30;;;14.20;99.90;;;;;;4924772;29;20600;-72
2021/05/16 16:29:14;;;;;;;6.25;5.75;;;14.20;99.90;;;;;;4926599;29;20207;-72
2021/05/16 16:31:40;;;;;;;8.90;5.70;;;14.10;99.90;;;;;;4915761;29;20234;-73
2021/05/16 16:34:07;;;;;;;6.35;5.85;;;14.00;99.90;;;;;;4919874;29;20911;-72
2021/05/16 16:36:34;;;;;;;7.07;6.20;;;13.90;99.90;;;;;;4921818;29;20209;-73
2021/05/16 16:39:01;;;;;;;10.93;7.22;;;13.80;99.90;;;;;;4916292;29;20466;-73
2021/05/16 16:41:27;;;;;;;7.28;6.68;;;13.70;99.90;;;;;;4926457;29;20218;-72
2021/05/16 16:43:53;;;;;;;8.95;7.38;;;13.80;99.90;;;;;;4916059;29;20639;-72
2021/05/16 16:46:19;;;;;;;9.38;6.95;;;13.70;99.90;;;;;;4917068;29;20230;-72
2021/05/16 16:48:45;;;;;;;7.40;6.70;;;13.70;99.90;;;;;;4917398;29;20202;-72
2021/05/16 16:51:12;;;;;;;8.02;7.32;;;13.60;99.90;;;;;;4915667;29;20357;-72
2021/05/16 16:53:38;;;;;;;7.10;6.50;;;13.60;99.90;;;;;;4920644;29;20206;-72
2021/05/16 16:56:05;;;;;;;8.70;7.75;;;13.50;99.90;;;;;;4921277;29;20206;-72